sensor_id;sensor_type;location;lat;lon;timestamp;pressure;altitude;pressure_sealevel;temperature;humidity
45991;BME280;31721;41.740;-88.000;2023-12-28T00:01:09;98793.19;;;3.51;55.30
45991;BME280;31721;41.740;-88.000;2023-12-28T00:03:37;98792.52;;;3.78;55.15
45991;BME280;31721;41.740;-88.000;2023-12-28T00:06:06;98798.74;;;3.72;55.04
45991;BME280;31721;41.740;-88.000;2023-12-28T00:08:34;98798.57;;;3.56;55.29
45991;BME280;31721;41.740;-88.000;2023-12-28T00:11:02;98801.93;;;3.72;55.26
45991;BME280;31721;41.740;-88.000;2023-12-28T00:13:30;98802.15;;;3.83;55.11
45991;BME280;31721;41.740;-88.000;2023-12-28T00:15:59;98803.09;;;3.75;55.36
45991;BME280;31721;41.740;-88.000;2023-12-28T00:18:27;98799.23;;;3.44;55.88
45991;BME280;31721;41.740;-88.000;2023-12-28T00:20:55;98800.14;;;3.49;55.70
45991;BME280;31721;41.740;-88.000;2023-12-28T00:23:23;98799.49;;;3.68;55.58
45991;BME280;31721;41.740;-88.000;2023-12-28T00:25:52;98797.61;;;3.72;55.49
45991;BME280;31721;41.740;-88.000;2023-12-28T00:28:20;98797.81;;;3.23;56.23
45991;BME280;31721;41.740;-88.000;2023-12-28T00:30:48;98800.86;;;3.42;55.72
45991;BME280;31721;41.740;-88.000;2023-12-28T00:33:16;98797.58;;;3.44;55.89
45991;BME280;31721;41.740;-88.000;2023-12-28T00:35:43;98802.93;;;3.45;55.74
45991;BME280;31721;41.740;-88.000;2023-12-28T00:38:11;98804.92;;;3.45;55.95
45991;BME280;31721;41.740;-88.000;2023-12-28T00:40:40;98805.72;;;3.21;56.55
45991;BME280;31721;41.740;-88.000;2023-12-28T00:43:08;98811.35;;;3.47;56.06
45991;BME280;31721;41.740;-88.000;2023-12-28T00:45:36;98813.26;;;3.49;55.73
45991;BME280;31721;41.740;-88.000;2023-12-28T00:48:05;98815.11;;;3.63;55.81
45991;BME280;31721;41.740;-88.000;2023-12-28T00:50:32;98818.27;;;3.34;55.92
45991;BME280;31721;41.740;-88.000;2023-12-28T00:53:01;98815.94;;;3.50;55.94
45991;BME280;31721;41.740;-88.000;2023-12-28T00:55:30;98811.44;;;3.42;56.05
45991;BME280;31721;41.740;-88.000;2023-12-28T00:57:58;98816.13;;;3.42;56.15
45991;BME280;31721;41.740;-88.000;2023-12-28T01:00:26;98819.54;;;3.41;56.30
45991;BME280;31721;41.740;-88.000;2023-12-28T01:02:54;98824.49;;;3.62;56.18
45991;BME280;31721;41.740;-88.000;2023-12-28T01:05:23;98822.16;;;3.56;56.33
45991;BME280;31721;41.740;-88.000;2023-12-28T01:07:51;98827.98;;;3.30;56.46
45991;BME280;31721;41.740;-88.000;2023-12-28T01:10:19;98826.01;;;3.64;56.49
45991;BME280;31721;41.740;-88.000;2023-12-28T01:12:47;98829.59;;;3.65;56.29
45991;BME280;31721;41.740;-88.000;2023-12-28T01:15:15;98828.51;;;3.75;56.17
45991;BME280;31721;41.740;-88.000;2023-12-28T01:17:44;98831.27;;;3.53;56.71
45991;BME280;31721;41.740;-88.000;2023-12-28T01:20:13;98828.27;;;3.70;56.35
45991;BME280;31721;41.740;-88.000;2023-12-28T01:22:41;98830.51;;;3.80;56.19
45991;BME280;31721;41.740;-88.000;2023-12-28T01:25:09;98826.22;;;3.64;56.23
45991;BME280;31721;41.740;-88.000;2023-12-28T01:27:37;98816.51;;;3.57;56.64
45991;BME280;31721;41.740;-88.000;2023-12-28T01:30:07;98815.92;;;3.53;56.74
45991;BME280;31721;41.740;-88.000;2023-12-28T01:32:35;98813.70;;;3.73;56.41
45991;BME280;31721;41.740;-88.000;2023-12-28T01:35:03;98811.42;;;3.54;56.66
45991;BME280;31721;41.740;-88.000;2023-12-28T01:37:30;98804.32;;;3.42;56.70
45991;BME280;31721;41.740;-88.000;2023-12-28T01:39:59;98812.95;;;3.54;56.83
45991;BME280;31721;41.740;-88.000;2023-12-28T01:42:27;98815.38;;;3.50;56.69
45991;BME280;31721;41.740;-88.000;2023-12-28T01:44:55;98816.91;;;3.58;57.04
45991;BME280;31721;41.740;-88.000;2023-12-28T01:47:23;98815.26;;;3.56;57.20
45991;BME280;31721;41.740;-88.000;2023-12-28T01:49:51;98815.02;;;3.64;56.71
45991;BME280;31721;41.740;-88.000;2023-12-28T01:52:20;98818.26;;;3.62;56.60
45991;BME280;31721;41.740;-88.000;2023-12-28T01:54:49;98817.19;;;3.66;56.40
45991;BME280;31721;41.740;-88.000;2023-12-28T01:57:17;98812.81;;;3.75;56.56
45991;BME280;31721;41.740;-88.000;2023-12-28T01:59:45;98811.68;;;3.80;56.56
45991;BME280;31721;41.740;-88.000;2023-12-28T02:02:13;98805.77;;;3.63;56.58
45991;BME280;31721;41.740;-88.000;2023-12-28T02:04:41;98803.56;;;3.55;56.78
45991;BME280;31721;41.740;-88.000;2023-12-28T02:07:11;98802.29;;;3.53;57.31
45991;BME280;31721;41.740;-88.000;2023-12-28T02:09:41;98807.74;;;3.20;57.60
45991;BME280;31721;41.740;-88.000;2023-12-28T02:12:09;98798.31;;;3.53;57.21
45991;BME280;31721;41.740;-88.000;2023-12-28T02:14:37;98798.71;;;3.68;56.81
45991;BME280;31721;41.740;-88.000;2023-12-28T02:17:12;98795.46;;;3.47;57.12
45991;BME280;31721;41.740;-88.000;2023-12-28T02:19:45;98790.90;;;3.55;57.16
45991;BME280;31721;41.740;-88.000;2023-12-28T02:22:16;98793.57;;;3.07;57.99
45991;BME280;31721;41.740;-88.000;2023-12-28T02:25:04;98788.77;;;3.40;57.33
45991;BME280;31721;41.740;-88.000;2023-12-28T02:27:33;98795.63;;;3.34;57.53
45991;BME280;31721;41.740;-88.000;2023-12-28T02:30:02;98791.96;;;3.27;58.16
45991;BME280;31721;41.740;-88.000;2023-12-28T02:32:42;98785.24;;;2.93;58.30
45991;BME280;31721;41.740;-88.000;2023-12-28T02:35:17;98784.88;;;3.07;57.88
45991;BME280;31721;41.740;-88.000;2023-12-28T02:37:50;98777.36;;;3.23;57.47
45991;BME280;31721;41.740;-88.000;2023-12-28T02:40:19;98775.74;;;3.36;57.52
45991;BME280;31721;41.740;-88.000;2023-12-28T02:42:48;98776.28;;;3.44;57.35
45991;BME280;31721;41.740;-88.000;2023-12-28T02:45:18;98776.04;;;3.68;57.34
45991;BME280;31721;41.740;-88.000;2023-12-28T02:47:47;98777.21;;;3.74;57.22
45991;BME280;31721;41.740;-88.000;2023-12-28T02:50:14;98770.29;;;3.38;57.35
45991;BME280;31721;41.740;-88.000;2023-12-28T02:52:42;98779.72;;;3.42;57.42
45991;BME280;31721;41.740;-88.000;2023-12-28T02:55:09;98781.66;;;3.50;57.45
45991;BME280;31721;41.740;-88.000;2023-12-28T02:57:38;98782.85;;;3.41;57.25
45991;BME280;31721;41.740;-88.000;2023-12-28T03:00:07;98782.97;;;3.22;57.84
45991;BME280;31721;41.740;-88.000;2023-12-28T03:02:35;98786.22;;;3.54;57.45
45991;BME280;31721;41.740;-88.000;2023-12-28T03:05:04;98782.51;;;3.48;57.26
45991;BME280;31721;41.740;-88.000;2023-12-28T03:07:33;98783.37;;;3.59;57.41
45991;BME280;31721;41.740;-88.000;2023-12-28T03:10:02;98781.71;;;3.44;57.32
45991;BME280;31721;41.740;-88.000;2023-12-28T03:12:30;98783.79;;;3.60;57.29
45991;BME280;31721;41.740;-88.000;2023-12-28T03:14:58;98779.65;;;3.59;57.21
45991;BME280;31721;41.740;-88.000;2023-12-28T03:17:26;98777.55;;;3.56;57.33
45991;BME280;31721;41.740;-88.000;2023-12-28T03:19:55;98774.80;;;3.42;57.21
45991;BME280;31721;41.740;-88.000;2023-12-28T03:22:22;98775.30;;;3.54;57.22
45991;BME280;31721;41.740;-88.000;2023-12-28T03:24:50;98769.11;;;3.20;57.42
45991;BME280;31721;41.740;-88.000;2023-12-28T03:27:18;98763.89;;;3.33;57.38
45991;BME280;31721;41.740;-88.000;2023-12-28T03:29:45;98761.62;;;3.20;57.35
45991;BME280;31721;41.740;-88.000;2023-12-28T03:32:14;98763.87;;;3.37;57.32
45991;BME280;31721;41.740;-88.000;2023-12-28T03:34:42;98763.17;;;3.46;57.32
45991;BME280;31721;41.740;-88.000;2023-12-28T03:37:11;98762.35;;;3.33;57.23
45991;BME280;31721;41.740;-88.000;2023-12-28T03:39:38;98760.38;;;3.38;57.19
45991;BME280;31721;41.740;-88.000;2023-12-28T03:42:06;98760.11;;;3.33;57.16
45991;BME280;31721;41.740;-88.000;2023-12-28T03:44:33;98755.74;;;3.28;57.15
45991;BME280;31721;41.740;-88.000;2023-12-28T03:47:01;98746.66;;;3.06;57.36
45991;BME280;31721;41.740;-88.000;2023-12-28T03:49:30;98742.42;;;3.18;57.42
45991;BME280;31721;41.740;-88.000;2023-12-28T03:51:58;98738.27;;;2.75;58.10
45991;BME280;31721;41.740;-88.000;2023-12-28T03:54:25;98736.98;;;2.88;57.89
45991;BME280;31721;41.740;-88.000;2023-12-28T03:56:54;98734.28;;;2.96;57.73
45991;BME280;31721;41.740;-88.000;2023-12-28T03:59:21;98738.32;;;2.78;58.12
45991;BME280;31721;41.740;-88.000;2023-12-28T04:01:49;98741.40;;;2.91;57.60
45991;BME280;31721;41.740;-88.000;2023-12-28T04:04:17;98740.64;;;3.04;57.67
45991;BME280;31721;41.740;-88.000;2023-12-28T04:06:44;98740.97;;;2.62;57.74
45991;BME280;31721;41.740;-88.000;2023-12-28T04:09:12;98740.57;;;2.86;57.91
45991;BME280;31721;41.740;-88.000;2023-12-28T04:11:40;98741.52;;;2.81;57.52
45991;BME280;31721;41.740;-88.000;2023-12-28T04:14:08;98743.65;;;2.67;57.86
45991;BME280;31721;41.740;-88.000;2023-12-28T04:16:36;98741.17;;;2.78;57.88
45991;BME280;31721;41.740;-88.000;2023-12-28T04:19:04;98739.37;;;2.42;58.30
45991;BME280;31721;41.740;-88.000;2023-12-28T04:21:31;98744.10;;;2.17;59.11
45991;BME280;31721;41.740;-88.000;2023-12-28T04:23:59;98737.31;;;2.28;58.60
45991;BME280;31721;41.740;-88.000;2023-12-28T04:26:27;98738.25;;;2.46;58.30
45991;BME280;31721;41.740;-88.000;2023-12-28T04:28:55;98734.14;;;2.48;58.32
45991;BME280;31721;41.740;-88.000;2023-12-28T04:31:23;98738.29;;;2.26;58.46
45991;BME280;31721;41.740;-88.000;2023-12-28T04:33:50;98742.10;;;2.04;59.08
45991;BME280;31721;41.740;-88.000;2023-12-28T04:36:18;98741.56;;;2.40;58.36
45991;BME280;31721;41.740;-88.000;2023-12-28T04:38:45;98739.84;;;2.11;58.37
45991;BME280;31721;41.740;-88.000;2023-12-28T04:41:12;98740.06;;;2.24;58.42
45991;BME280;31721;41.740;-88.000;2023-12-28T04:43:40;98738.26;;;2.39;58.20
45991;BME280;31721;41.740;-88.000;2023-12-28T04:46:07;98733.73;;;2.12;58.67
45991;BME280;31721;41.740;-88.000;2023-12-28T04:48:35;98727.26;;;2.35;58.22
45991;BME280;31721;41.740;-88.000;2023-12-28T04:51:03;98724.98;;;2.24;58.32
45991;BME280;31721;41.740;-88.000;2023-12-28T04:53:31;98724.88;;;2.19;58.33
45991;BME280;31721;41.740;-88.000;2023-12-28T04:55:58;98724.10;;;2.25;58.23
45991;BME280;31721;41.740;-88.000;2023-12-28T04:58:26;98717.45;;;2.28;58.41
45991;BME280;31721;41.740;-88.000;2023-12-28T05:00:54;98715.12;;;1.96;58.56
45991;BME280;31721;41.740;-88.000;2023-12-28T05:03:22;98711.62;;;1.54;59.21
45991;BME280;31721;41.740;-88.000;2023-12-28T05:05:49;98707.76;;;1.77;59.05
45991;BME280;31721;41.740;-88.000;2023-12-28T05:08:16;98706.56;;;1.47;59.22
45991;BME280;31721;41.740;-88.000;2023-12-28T05:10:44;98707.14;;;1.20;60.00
45991;BME280;31721;41.740;-88.000;2023-12-28T05:13:11;98695.48;;;1.43;59.16
45991;BME280;31721;41.740;-88.000;2023-12-28T05:15:39;98699.07;;;1.20;59.41
45991;BME280;31721;41.740;-88.000;2023-12-28T05:18:06;98693.68;;;1.41;59.05
45991;BME280;31721;41.740;-88.000;2023-12-28T05:20:34;98694.39;;;0.96;59.57
45991;BME280;31721;41.740;-88.000;2023-12-28T05:23:01;98692.76;;;0.94;59.38
45991;BME280;31721;41.740;-88.000;2023-12-28T05:25:29;98688.91;;;1.09;59.21
45991;BME280;31721;41.740;-88.000;2023-12-28T05:27:57;98688.23;;;0.97;58.97
45991;BME280;31721;41.740;-88.000;2023-12-28T05:30:24;98677.74;;;1.16;59.08
45991;BME280;31721;41.740;-88.000;2023-12-28T05:32:51;98685.81;;;1.16;59.07
45991;BME280;31721;41.740;-88.000;2023-12-28T05:35:19;98684.93;;;0.79;59.58
45991;BME280;31721;41.740;-88.000;2023-12-28T05:37:46;98682.70;;;1.34;58.74
45991;BME280;31721;41.740;-88.000;2023-12-28T05:40:14;98683.20;;;1.26;58.60
45991;BME280;31721;41.740;-88.000;2023-12-28T05:42:41;98680.77;;;1.30;58.62
45991;BME280;31721;41.740;-88.000;2023-12-28T05:45:10;98684.06;;;1.22;58.64
45991;BME280;31721;41.740;-88.000;2023-12-28T05:47:37;98683.80;;;1.26;58.43
45991;BME280;31721;41.740;-88.000;2023-12-28T05:50:06;98676.32;;;1.41;58.36
45991;BME280;31721;41.740;-88.000;2023-12-28T05:52:33;98677.18;;;1.63;58.20
45991;BME280;31721;41.740;-88.000;2023-12-28T05:55:01;98674.26;;;1.66;58.13
45991;BME280;31721;41.740;-88.000;2023-12-28T05:57:28;98670.64;;;1.87;57.70
45991;BME280;31721;41.740;-88.000;2023-12-28T05:59:56;98665.16;;;1.63;57.63
45991;BME280;31721;41.740;-88.000;2023-12-28T06:02:23;98660.05;;;1.81;57.70
45991;BME280;31721;41.740;-88.000;2023-12-28T06:04:51;98662.02;;;2.04;57.46
45991;BME280;31721;41.740;-88.000;2023-12-28T06:07:18;98663.94;;;1.91;57.61
45991;BME280;31721;41.740;-88.000;2023-12-28T06:09:46;98658.28;;;2.06;57.32
45991;BME280;31721;41.740;-88.000;2023-12-28T06:12:14;98650.89;;;1.93;57.28
45991;BME280;31721;41.740;-88.000;2023-12-28T06:14:41;98648.99;;;1.96;57.43
45991;BME280;31721;41.740;-88.000;2023-12-28T06:17:09;98642.64;;;2.03;57.26
45991;BME280;31721;41.740;-88.000;2023-12-28T06:19:37;98647.00;;;2.11;57.12
45991;BME280;31721;41.740;-88.000;2023-12-28T06:22:05;98641.07;;;1.94;57.27
45991;BME280;31721;41.740;-88.000;2023-12-28T06:24:33;98637.71;;;2.20;56.87
45991;BME280;31721;41.740;-88.000;2023-12-28T06:27:05;98632.14;;;2.17;56.83
45991;BME280;31721;41.740;-88.000;2023-12-28T06:29:32;98632.44;;;1.79;57.07
45991;BME280;31721;41.740;-88.000;2023-12-28T06:31:59;98633.79;;;1.88;56.97
45991;BME280;31721;41.740;-88.000;2023-12-28T06:34:27;98635.79;;;2.07;57.04
45991;BME280;31721;41.740;-88.000;2023-12-28T06:36:54;98634.24;;;1.95;57.02
45991;BME280;31721;41.740;-88.000;2023-12-28T06:39:22;98629.22;;;1.65;57.15
45991;BME280;31721;41.740;-88.000;2023-12-28T06:41:50;98624.44;;;1.76;57.00
45991;BME280;31721;41.740;-88.000;2023-12-28T06:44:18;98620.11;;;1.74;57.14
45991;BME280;31721;41.740;-88.000;2023-12-28T06:46:45;98617.91;;;1.93;57.00
45991;BME280;31721;41.740;-88.000;2023-12-28T06:49:13;98617.09;;;1.85;57.02
45991;BME280;31721;41.740;-88.000;2023-12-28T06:51:40;98613.07;;;1.70;56.95
45991;BME280;31721;41.740;-88.000;2023-12-28T06:54:08;98603.82;;;1.80;56.84
45991;BME280;31721;41.740;-88.000;2023-12-28T06:56:35;98610.33;;;1.97;56.77
45991;BME280;31721;41.740;-88.000;2023-12-28T06:59:02;98610.83;;;1.97;56.52
45991;BME280;31721;41.740;-88.000;2023-12-28T07:01:30;98605.01;;;1.85;56.29
45991;BME280;31721;41.740;-88.000;2023-12-28T07:03:57;98605.91;;;2.04;56.16
45991;BME280;31721;41.740;-88.000;2023-12-28T07:06:25;98606.05;;;2.04;56.34
45991;BME280;31721;41.740;-88.000;2023-12-28T07:08:52;98603.12;;;2.10;56.22
45991;BME280;31721;41.740;-88.000;2023-12-28T07:11:20;98607.60;;;1.56;56.18
45991;BME280;31721;41.740;-88.000;2023-12-28T07:13:47;98605.49;;;2.00;56.22
45991;BME280;31721;41.740;-88.000;2023-12-28T07:16:15;98606.14;;;2.08;56.14
45991;BME280;31721;41.740;-88.000;2023-12-28T07:18:42;98599.50;;;1.69;55.85
45991;BME280;31721;41.740;-88.000;2023-12-28T07:21:10;98598.15;;;1.87;56.34
45991;BME280;31721;41.740;-88.000;2023-12-28T07:23:37;98591.65;;;1.87;56.14
45991;BME280;31721;41.740;-88.000;2023-12-28T07:26:05;98593.46;;;1.69;56.48
45991;BME280;31721;41.740;-88.000;2023-12-28T07:28:33;98590.26;;;1.42;56.68
45991;BME280;31721;41.740;-88.000;2023-12-28T07:31:00;98585.17;;;1.88;56.36
45991;BME280;31721;41.740;-88.000;2023-12-28T07:33:28;98588.92;;;1.91;56.19
45991;BME280;31721;41.740;-88.000;2023-12-28T07:35:55;98587.02;;;1.57;56.30
45991;BME280;31721;41.740;-88.000;2023-12-28T07:38:23;98592.92;;;1.82;56.10
45991;BME280;31721;41.740;-88.000;2023-12-28T07:40:50;98581.06;;;1.83;55.96
45991;BME280;31721;41.740;-88.000;2023-12-28T07:43:18;98580.98;;;1.38;56.25
45991;BME280;31721;41.740;-88.000;2023-12-28T07:45:45;98581.52;;;1.74;56.07
45991;BME280;31721;41.740;-88.000;2023-12-28T07:48:13;98576.48;;;1.53;56.19
45991;BME280;31721;41.740;-88.000;2023-12-28T07:50:41;98576.52;;;1.32;56.30
45991;BME280;31721;41.740;-88.000;2023-12-28T07:53:09;98577.75;;;1.74;56.26
45991;BME280;31721;41.740;-88.000;2023-12-28T07:55:37;98580.53;;;1.48;56.18
45991;BME280;31721;41.740;-88.000;2023-12-28T07:58:05;98583.09;;;1.17;55.42
45991;BME280;31721;41.740;-88.000;2023-12-28T08:00:32;98577.66;;;1.42;56.24
45991;BME280;31721;41.740;-88.000;2023-12-28T08:03:00;98575.98;;;1.60;55.83
45991;BME280;31721;41.740;-88.000;2023-12-28T08:05:27;98575.21;;;1.47;55.71
45991;BME280;31721;41.740;-88.000;2023-12-28T08:07:55;98577.65;;;1.47;55.69
45991;BME280;31721;41.740;-88.000;2023-12-28T08:10:22;98574.84;;;1.63;55.70
45991;BME280;31721;41.740;-88.000;2023-12-28T08:12:50;98571.11;;;1.69;55.67
45991;BME280;31721;41.740;-88.000;2023-12-28T08:15:17;98567.62;;;1.70;55.54
45991;BME280;31721;41.740;-88.000;2023-12-28T08:17:45;98565.47;;;1.78;55.27
45991;BME280;31721;41.740;-88.000;2023-12-28T08:20:12;98567.54;;;1.79;54.99
45991;BME280;31721;41.740;-88.000;2023-12-28T08:22:40;98566.65;;;1.72;55.03
45991;BME280;31721;41.740;-88.000;2023-12-28T08:25:08;98573.29;;;1.37;55.12
45991;BME280;31721;41.740;-88.000;2023-12-28T08:27:36;98574.78;;;1.66;54.97
45991;BME280;31721;41.740;-88.000;2023-12-28T08:30:05;98574.43;;;1.33;55.19
45991;BME280;31721;41.740;-88.000;2023-12-28T08:32:33;98575.00;;;1.37;55.44
45991;BME280;31721;41.740;-88.000;2023-12-28T08:35:01;98576.36;;;1.34;55.20
45991;BME280;31721;41.740;-88.000;2023-12-28T08:37:28;98574.73;;;1.54;55.56
45991;BME280;31721;41.740;-88.000;2023-12-28T08:39:56;98575.68;;;0.97;54.75
45991;BME280;31721;41.740;-88.000;2023-12-28T08:42:23;98574.19;;;0.53;55.66
45991;BME280;31721;41.740;-88.000;2023-12-28T08:44:51;98576.23;;;0.91;55.81
45991;BME280;31721;41.740;-88.000;2023-12-28T08:47:19;98577.08;;;1.34;55.73
45991;BME280;31721;41.740;-88.000;2023-12-28T08:49:46;98575.27;;;1.21;55.55
45991;BME280;31721;41.740;-88.000;2023-12-28T08:52:14;98572.86;;;0.94;55.46
45991;BME280;31721;41.740;-88.000;2023-12-28T08:54:41;98565.68;;;1.09;55.59
45991;BME280;31721;41.740;-88.000;2023-12-28T08:57:09;98566.19;;;1.20;55.49
45991;BME280;31721;41.740;-88.000;2023-12-28T08:59:36;98566.90;;;0.83;55.77
45991;BME280;31721;41.740;-88.000;2023-12-28T09:02:04;98566.06;;;0.86;55.49
45991;BME280;31721;41.740;-88.000;2023-12-28T09:04:31;98556.00;;;0.62;55.60
45991;BME280;31721;41.740;-88.000;2023-12-28T09:06:58;98549.72;;;0.56;55.90
45991;BME280;31721;41.740;-88.000;2023-12-28T09:09:26;98549.24;;;0.49;55.80
45991;BME280;31721;41.740;-88.000;2023-12-28T09:11:54;98550.90;;;1.01;56.16
45991;BME280;31721;41.740;-88.000;2023-12-28T09:14:21;98547.53;;;0.61;55.82
45991;BME280;31721;41.740;-88.000;2023-12-28T09:16:48;98543.45;;;0.97;55.97
45991;BME280;31721;41.740;-88.000;2023-12-28T09:19:16;98540.58;;;0.42;56.39
45991;BME280;31721;41.740;-88.000;2023-12-28T09:21:44;98538.56;;;0.52;56.48
45991;BME280;31721;41.740;-88.000;2023-12-28T09:24:12;98544.52;;;0.57;56.18
45991;BME280;31721;41.740;-88.000;2023-12-28T09:26:40;98549.02;;;0.88;56.34
45991;BME280;31721;41.740;-88.000;2023-12-28T09:29:08;98545.34;;;0.25;56.87
45991;BME280;31721;41.740;-88.000;2023-12-28T09:31:36;98543.14;;;0.92;56.61
45991;BME280;31721;41.740;-88.000;2023-12-28T09:34:04;98534.04;;;1.20;56.48
45991;BME280;31721;41.740;-88.000;2023-12-28T09:36:32;98536.88;;;1.04;56.27
45991;BME280;31721;41.740;-88.000;2023-12-28T09:38:59;98531.44;;;1.07;56.20
45991;BME280;31721;41.740;-88.000;2023-12-28T09:41:27;98525.49;;;0.66;56.56
45991;BME280;31721;41.740;-88.000;2023-12-28T09:44:05;98523.99;;;1.00;56.32
45991;BME280;31721;41.740;-88.000;2023-12-28T09:46:34;98516.90;;;1.22;56.30
45991;BME280;31721;41.740;-88.000;2023-12-28T09:49:03;98511.77;;;0.98;56.66
45991;BME280;31721;41.740;-88.000;2023-12-28T09:51:31;98507.65;;;0.81;56.78
45991;BME280;31721;41.740;-88.000;2023-12-28T09:53:59;98505.75;;;0.83;57.16
45991;BME280;31721;41.740;-88.000;2023-12-28T09:56:27;98507.12;;;0.72;57.14
45991;BME280;31721;41.740;-88.000;2023-12-28T09:58:56;98505.90;;;0.84;57.29
45991;BME280;31721;41.740;-88.000;2023-12-28T10:01:24;98507.23;;;1.29;56.69
45991;BME280;31721;41.740;-88.000;2023-12-28T10:03:52;98499.04;;;1.25;56.56
45991;BME280;31721;41.740;-88.000;2023-12-28T10:06:19;98496.27;;;1.50;56.43
45991;BME280;31721;41.740;-88.000;2023-12-28T10:08:48;98495.46;;;1.54;56.37
45991;BME280;31721;41.740;-88.000;2023-12-28T10:11:17;98500.00;;;1.56;56.36
45991;BME280;31721;41.740;-88.000;2023-12-28T10:13:45;98498.50;;;1.56;56.33
45991;BME280;31721;41.740;-88.000;2023-12-28T10:16:13;98501.64;;;1.21;56.85
45991;BME280;31721;41.740;-88.000;2023-12-28T10:18:41;98503.00;;;0.77;57.73
45991;BME280;31721;41.740;-88.000;2023-12-28T10:21:09;98503.87;;;1.27;57.40
45991;BME280;31721;41.740;-88.000;2023-12-28T10:23:38;98503.30;;;0.98;58.09
45991;BME280;31721;41.740;-88.000;2023-12-28T10:26:05;98502.11;;;1.07;58.12
45991;BME280;31721;41.740;-88.000;2023-12-28T10:28:34;98498.96;;;1.08;57.99
45991;BME280;31721;41.740;-88.000;2023-12-28T10:31:01;98498.52;;;1.27;57.65
45991;BME280;31721;41.740;-88.000;2023-12-28T10:33:34;98499.68;;;1.28;57.75
45991;BME280;31721;41.740;-88.000;2023-12-28T10:36:05;98495.80;;;1.47;57.50
45991;BME280;31721;41.740;-88.000;2023-12-28T10:38:35;98499.24;;;1.29;57.87
45991;BME280;31721;41.740;-88.000;2023-12-28T10:41:06;98494.56;;;1.55;57.27
45991;BME280;31721;41.740;-88.000;2023-12-28T10:43:41;98497.28;;;1.58;57.33
45991;BME280;31721;41.740;-88.000;2023-12-28T10:46:21;98500.39;;;1.41;57.48
45991;BME280;31721;41.740;-88.000;2023-12-28T10:48:50;98506.20;;;1.37;58.13
45991;BME280;31721;41.740;-88.000;2023-12-28T10:51:22;98506.38;;;1.69;57.39
45991;BME280;31721;41.740;-88.000;2023-12-28T10:54:03;98506.40;;;1.17;58.54
45991;BME280;31721;41.740;-88.000;2023-12-28T10:56:38;98508.20;;;1.47;58.19
45991;BME280;31721;41.740;-88.000;2023-12-28T10:59:16;98507.73;;;1.57;57.83
45991;BME280;31721;41.740;-88.000;2023-12-28T11:01:47;98509.75;;;1.92;57.63
45991;BME280;31721;41.740;-88.000;2023-12-28T11:04:23;98510.14;;;1.35;58.71
45991;BME280;31721;41.740;-88.000;2023-12-28T11:06:51;98510.99;;;1.75;57.80
45991;BME280;31721;41.740;-88.000;2023-12-28T11:09:21;98508.21;;;1.85;57.83
45991;BME280;31721;41.740;-88.000;2023-12-28T11:11:50;98510.30;;;1.87;58.17
45991;BME280;31721;41.740;-88.000;2023-12-28T11:14:19;98511.29;;;1.09;60.11
45991;BME280;31721;41.740;-88.000;2023-12-28T11:16:48;98506.92;;;1.49;58.75
45991;BME280;31721;41.740;-88.000;2023-12-28T11:19:17;98505.53;;;0.97;60.82
45991;BME280;31721;41.740;-88.000;2023-12-28T11:21:45;98506.96;;;1.37;60.42
45991;BME280;31721;41.740;-88.000;2023-12-28T11:24:13;98503.30;;;1.81;59.41
45991;BME280;31721;41.740;-88.000;2023-12-28T11:26:40;98499.18;;;0.82;62.44
45991;BME280;31721;41.740;-88.000;2023-12-28T11:29:08;98495.53;;;1.22;60.19
45991;BME280;31721;41.740;-88.000;2023-12-28T11:31:36;98489.84;;;1.43;60.21
45991;BME280;31721;41.740;-88.000;2023-12-28T11:34:04;98487.02;;;1.14;61.04
45991;BME280;31721;41.740;-88.000;2023-12-28T11:36:34;98489.09;;;1.27;61.30
45991;BME280;31721;41.740;-88.000;2023-12-28T11:39:04;98489.67;;;0.85;62.36
45991;BME280;31721;41.740;-88.000;2023-12-28T11:41:35;98491.06;;;1.37;61.32
45991;BME280;31721;41.740;-88.000;2023-12-28T11:44:04;98489.36;;;1.45;60.93
45991;BME280;31721;41.740;-88.000;2023-12-28T11:46:32;98488.99;;;1.33;61.33
45991;BME280;31721;41.740;-88.000;2023-12-28T11:49:07;98488.03;;;1.34;60.96
45991;BME280;31721;41.740;-88.000;2023-12-28T11:51:38;98495.20;;;1.32;62.16
45991;BME280;31721;41.740;-88.000;2023-12-28T11:54:07;98498.76;;;1.08;62.04
45991;BME280;31721;41.740;-88.000;2023-12-28T11:56:34;98496.83;;;1.25;61.62
45991;BME280;31721;41.740;-88.000;2023-12-28T11:59:02;98490.08;;;1.00;62.32
45991;BME280;31721;41.740;-88.000;2023-12-28T12:01:29;98487.05;;;1.47;60.93
45991;BME280;31721;41.740;-88.000;2023-12-28T12:03:57;98489.47;;;0.84;63.32
45991;BME280;31721;41.740;-88.000;2023-12-28T12:06:24;98488.18;;;1.17;62.19
45991;BME280;31721;41.740;-88.000;2023-12-28T12:08:52;98485.53;;;1.40;61.66
45991;BME280;31721;41.740;-88.000;2023-12-28T12:11:20;98486.61;;;1.39;61.82
45991;BME280;31721;41.740;-88.000;2023-12-28T12:13:50;98491.39;;;1.21;62.24
45991;BME280;31721;41.740;-88.000;2023-12-28T12:16:18;98494.91;;;1.11;62.31
45991;BME280;31721;41.740;-88.000;2023-12-28T12:18:46;98492.33;;;1.66;61.51
45991;BME280;31721;41.740;-88.000;2023-12-28T12:21:15;98495.10;;;1.70;61.38
45991;BME280;31721;41.740;-88.000;2023-12-28T12:23:44;98496.42;;;1.70;61.22
45991;BME280;31721;41.740;-88.000;2023-12-28T12:26:11;98495.85;;;1.40;61.87
45991;BME280;31721;41.740;-88.000;2023-12-28T12:28:39;98493.36;;;1.66;60.99
45991;BME280;31721;41.740;-88.000;2023-12-28T12:31:06;98497.30;;;1.48;61.48
45991;BME280;31721;41.740;-88.000;2023-12-28T12:33:34;98497.51;;;1.97;60.98
45991;BME280;31721;41.740;-88.000;2023-12-28T12:36:02;98493.15;;;1.77;61.03
45991;BME280;31721;41.740;-88.000;2023-12-28T12:38:30;98491.39;;;1.89;61.13
45991;BME280;31721;41.740;-88.000;2023-12-28T12:40:58;98487.66;;;1.43;61.32
45991;BME280;31721;41.740;-88.000;2023-12-28T12:43:25;98485.41;;;1.68;61.22
45991;BME280;31721;41.740;-88.000;2023-12-28T12:45:53;98481.51;;;1.69;61.61
45991;BME280;31721;41.740;-88.000;2023-12-28T12:48:21;98477.77;;;1.43;62.17
45991;BME280;31721;41.740;-88.000;2023-12-28T12:50:48;98476.73;;;1.44;62.28
45991;BME280;31721;41.740;-88.000;2023-12-28T12:53:17;98474.84;;;1.23;63.24
45991;BME280;31721;41.740;-88.000;2023-12-28T12:55:44;98473.81;;;1.31;62.43